Language selection

My Weather Profile Weather Topics  | 

Lake of the Woods: Past 24 Hour Conditions

 

Pukaskwa National Park

07:00 PM EST 05 February 2023
Disclaimer

This table is a summary of hourly weather conditions for the past 24 hours.
Please note that these observations might not always be representative of weather conditions over their associated marine area.

Date / Time
(EST)
Wind(knots) Conditions Visibility(km) Pressure(kPa) Air tempC) Relative humidity(%) Dew pointC) Wind Chill
05 February 2023
19:00 NE 2 N/A N/A 102.0 -17 78 -20 -20
18:00 NE 3 N/A N/A 101.9 -15 74 -18 -19
17:00 NNE 2 N/A N/A 101.8 -13 65 -18 -15
16:00 NE 5 N/A N/A 101.6 -12 62 -18 -18
15:00 NE 5 N/A N/A 101.6 -12 62 -18 -18
14:00 NNE 4 N/A N/A 101.5 -11 59 -18 -15
13:00 ENE 4 N/A N/A 101.5 -11 60 -18 -16
12:00 NNE 6 N/A N/A 101.4 -13 59 -19 -19
11:00 NE 8 gust 17 N/A N/A 101.4 -13 62 -19 -20
10:00 NE 6 N/A N/A 101.4 -13 67 -18 -19
9:00 NE 5 N/A N/A 101.3 -15 76 -18 -20
8:00 NE 5 N/A N/A 101.2 -14 77 -18 -20
7:00 NE 4 N/A N/A 101.2 -14 77 -17 -19
6:00 NE 5 N/A N/A 101.1 -14 76 -17 -20
5:00 NE 7 N/A N/A 101.1 -13 78 -16 -20
4:00 NE 8 N/A N/A 101.0 -13 78 -16 -20
3:00 NE 9 N/A N/A 101.0 -13 79 -16 -21
2:00 NE 6 N/A N/A 101.0 -13 79 -16 -19
1:00 NE 7 N/A N/A 101.0 -13 79 -15 -19
0:00 NE 6 N/A N/A 101.1 -12 80 -15 -18
04 February 2023
23:00 NE 5 N/A N/A 101.0 -11 80 -14 -16
22:00 NE 5 N/A N/A 101.0 -10 83 -13 -15
21:00 NE 4 N/A N/A 101.0 -10 82 -13 -14
20:00 NE 4 N/A N/A 100.9 -9 84 -11 -13
19:00 WNW 3 N/A N/A 100.9 -8 88 -9 -10

Zoom-in to make a selection

Map of Great Lakes - Lake Superior marine weather areas Mid Superior - 45001 East Superior - 45004 West Superior - 45006 Slate Island - 45136 Lake Of the Woods - 45148 Kenora Airport Royal Island Armstrong Airport Caribou Island Marathon Airport Pukaskwa National Park Thunder Bay Airport Welcome Island Little Flatland Island Sault Ste. Marie Airport Wawa Airport
Legend:
buoy Buoy
land station Land Station

Great Lakes - Lake Superior Area

Another Region

What we are doing

Date modified: